createdAt,value
2022-09-18T00:00:10.953Z,6.90
2022-09-18T00:03:07.415Z,8.00
2022-09-18T00:05:44.660Z,7.10
2022-09-18T00:08:18.591Z,6.60
2022-09-18T00:10:55.286Z,6.70
2022-09-18T00:13:30.537Z,6.90
2022-09-18T00:16:04.069Z,6.60
2022-09-18T00:18:37.828Z,6.50
2022-09-18T00:21:16.508Z,6.60
2022-09-18T00:23:51.084Z,7.50
2022-09-18T00:26:26.561Z,6.90
2022-09-18T00:31:48.998Z,7.00
2022-09-18T00:34:21.955Z,6.80
2022-09-18T00:36:55.569Z,7.20
2022-09-18T00:39:29.534Z,6.90
2022-09-18T00:42:03.282Z,8.20
2022-09-18T00:44:49.044Z,7.80
2022-09-18T00:47:36.804Z,6.80
2022-09-18T00:50:26.669Z,6.60
2022-09-18T00:53:03.844Z,7.20
2022-09-18T00:55:40.200Z,6.90
2022-09-18T00:58:14.136Z,6.20
2022-09-18T01:00:51.049Z,6.40
2022-09-18T01:03:24.318Z,7.50
2022-09-18T01:06:25.165Z,6.60
2022-09-18T01:09:06.851Z,7.10
2022-09-18T01:12:23.545Z,7.20
2022-09-18T01:15:14.242Z,7.30
2022-09-18T01:18:11.482Z,7.40
2022-09-18T01:21:09.307Z,6.90
2022-09-18T01:24:14.873Z,7.60
2022-09-18T01:27:08.955Z,7.70
2022-09-18T01:29:53.368Z,7.20
2022-09-18T01:32:55.697Z,7.00
2022-09-18T01:35:49.982Z,6.50
2022-09-18T01:38:37.211Z,6.80
2022-09-18T01:41:16.508Z,7.10
2022-09-18T01:43:55.830Z,6.40
2022-09-18T01:46:35.281Z,6.70
2022-09-18T01:49:22.710Z,7.20
2022-09-18T01:52:10.091Z,7.30
2022-09-18T01:54:47.767Z,7.10
2022-09-18T01:57:43.866Z,6.60
2022-09-18T02:00:17.134Z,6.90
2022-09-18T02:02:59.251Z,7.90
2022-09-18T02:05:52.905Z,7.50
2022-09-18T02:08:52.590Z,7.90
2022-09-18T02:11:55.384Z,7.60
2022-09-18T02:14:44.032Z,9.20
2022-09-18T02:17:56.850Z,7.90
2022-09-18T02:20:36.029Z,8.50
2022-09-18T02:23:11.187Z,7.60
2022-09-18T02:25:56.656Z,10.20
2022-09-18T02:28:32.862Z,9.30
2022-09-18T02:31:13.388Z,8.20
2022-09-18T02:33:48.725Z,8.80
2022-09-18T02:36:45.227Z,8.70
2022-09-18T02:39:46.034Z,10.60
2022-09-18T02:42:42.666Z,9.00
2022-09-18T02:45:33.257Z,11.70
2022-09-18T02:48:27.467Z,8.70
2022-09-18T02:51:11.064Z,9.00
2022-09-18T02:53:49.838Z,8.30
2022-09-18T02:56:50.670Z,9.20
2022-09-18T02:59:40.614Z,9.30
2022-09-18T03:02:21.116Z,8.50
2022-09-18T03:04:57.010Z,8.20
2022-09-18T03:07:45.633Z,7.90
2022-09-18T03:10:18.512Z,8.50
2022-09-18T03:12:51.448Z,7.90
2022-09-18T03:15:29.005Z,8.30
2022-09-18T03:18:03.817Z,8.10
2022-09-18T03:20:37.456Z,7.90
2022-09-18T03:23:12.823Z,7.40
2022-09-18T03:25:50.538Z,8.80
2022-09-18T03:28:23.661Z,8.20
2022-09-18T03:30:58.329Z,7.80
2022-09-18T03:33:31.675Z,7.50
2022-09-18T03:36:06.513Z,7.50
2022-09-18T03:38:42.224Z,8.90
2022-09-18T03:41:15.959Z,8.50
2022-09-18T03:43:50.581Z,7.70
2022-09-18T03:46:24.829Z,7.80
2022-09-18T03:49:04.139Z,7.80
2022-09-18T03:51:40.542Z,7.70
2022-09-18T03:54:15.249Z,7.60
2022-09-18T03:57:32.021Z,8.00
2022-09-18T04:00:43.008Z,8.90
2022-09-18T04:03:19.753Z,7.80
2022-09-18T04:06:13.316Z,8.00
2022-09-18T04:09:06.831Z,7.50
2022-09-18T04:11:45.186Z,9.40
2022-09-18T04:14:18.799Z,7.80
2022-09-18T04:16:52.118Z,7.50
2022-09-18T04:19:26.083Z,7.10
2022-09-18T04:22:00.066Z,7.30
2022-09-18T04:24:37.109Z,7.80
2022-09-18T04:27:15.500Z,8.20
2022-09-18T04:29:48.995Z,7.60
2022-09-18T04:32:25.775Z,8.80
2022-09-18T04:35:01.547Z,7.80
2022-09-18T04:37:34.739Z,7.10
2022-09-18T04:40:10.367Z,6.90
2022-09-18T04:42:46.798Z,7.90
2022-09-18T04:45:19.550Z,6.90
2022-09-18T04:47:52.521Z,6.60
2022-09-18T04:50:26.913Z,6.60
2022-09-18T04:53:25.531Z,5.90
2022-09-18T04:56:05.001Z,7.50
2022-09-18T04:58:41.619Z,6.30
2022-09-18T05:01:16.180Z,6.70
2022-09-18T05:03:49.501Z,6.70
2022-09-18T05:06:34.379Z,7.50
2022-09-18T05:09:07.445Z,5.60
2022-09-18T05:11:40.801Z,6.30
2022-09-18T05:14:15.329Z,6.00
2022-09-18T05:16:57.137Z,6.40
2022-09-18T05:19:45.575Z,6.40
2022-09-18T05:22:27.796Z,6.90
2022-09-18T05:25:01.357Z,7.10
2022-09-18T05:27:35.464Z,7.40
2022-09-18T05:30:12.170Z,7.40
2022-09-18T05:33:06.676Z,7.20
2022-09-18T05:35:42.866Z,7.30
2022-09-18T05:38:15.648Z,5.80
2022-09-18T05:40:52.959Z,6.00
2022-09-18T05:43:26.143Z,6.20
2022-09-18T05:46:00.131Z,5.70
2022-09-18T05:48:44.043Z,4.70
2022-09-18T05:51:18.194Z,4.90
2022-09-18T05:53:53.178Z,4.30
2022-09-18T05:56:34.829Z,4.60
2022-09-18T05:59:08.150Z,3.30
2022-09-18T06:01:46.301Z,3.10
2022-09-18T06:04:30.926Z,3.30
2022-09-18T06:07:07.260Z,7.00
2022-09-18T06:09:41.058Z,4.00
2022-09-18T06:12:13.633Z,3.60
2022-09-18T06:14:46.804Z,3.70
2022-09-18T06:17:21.300Z,4.90
2022-09-18T06:19:56.506Z,4.30
2022-09-18T06:22:33.749Z,3.70
2022-09-18T06:25:10.618Z,3.10
2022-09-18T06:27:44.425Z,3.10
2022-09-18T06:30:18.819Z,2.70
2022-09-18T06:33:21.898Z,1.50
2022-09-18T06:35:55.330Z,2.50
2022-09-18T06:38:36.773Z,4.50
2022-09-18T06:41:11.072Z,4.30
2022-09-18T06:43:52.405Z,1.50
2022-09-18T06:46:38.811Z,4.00
2022-09-18T06:49:44.523Z,2.20
2022-09-18T06:52:17.416Z,2.10
2022-09-18T06:54:51.546Z,1.10
2022-09-18T06:57:38.799Z,1.30
2022-09-18T07:00:13.966Z,2.10
2022-09-18T07:02:47.361Z,0.80
2022-09-18T07:05:48.936Z,2.00
2022-09-18T07:08:35.933Z,1.10
2022-09-18T07:11:26.277Z,2.50
2022-09-18T07:14:01.777Z,3.80
2022-09-18T07:16:36.023Z,1.70
2022-09-18T07:19:10.432Z,2.30
2022-09-18T07:21:48.240Z,0.90
2022-09-18T07:24:21.524Z,1.00
2022-09-18T07:26:56.991Z,0.50
2022-09-18T07:29:33.608Z,1.30
2022-09-18T07:32:09.049Z,1.40
2022-09-18T07:34:44.954Z,0.70
2022-09-18T07:37:23.530Z,0.60
2022-09-18T07:40:06.936Z,2.10
2022-09-18T07:43:11.605Z,0.30
2022-09-18T07:45:52.283Z,3.50
2022-09-18T07:48:27.592Z,1.00
2022-09-18T07:51:03.728Z,3.40
2022-09-18T07:53:40.817Z,0.60
2022-09-18T07:56:19.086Z,1.30
2022-09-18T07:58:57.250Z,7.10
2022-09-18T08:01:32.925Z,1.00
2022-09-18T08:04:23.964Z,1.10
2022-09-18T08:07:16.106Z,2.20
2022-09-18T08:10:15.894Z,1.40
2022-09-18T08:13:22.095Z,1.20
2022-09-18T08:16:13.712Z,1.80
2022-09-18T08:19:03.250Z,3.00
2022-09-18T08:22:18.367Z,2.10
2022-09-18T08:24:58.490Z,4.30
2022-09-18T08:27:32.969Z,4.10
2022-09-18T08:30:12.682Z,2.00
2022-09-18T08:32:46.924Z,2.80
2022-09-18T08:35:20.828Z,5.30
2022-09-18T08:37:56.375Z,2.10
2022-09-18T08:40:58.939Z,0.30
2022-09-18T08:43:34.402Z,2.40
2022-09-18T08:46:26.912Z,0.30
2022-09-18T08:57:49.256Z,0.40
2022-09-18T09:01:01.540Z,1.00
2022-09-18T09:04:06.512Z,1.70
2022-09-18T09:06:46.093Z,1.70
2022-09-18T09:09:44.109Z,3.20
2022-09-18T09:13:02.074Z,2.40
2022-09-18T09:16:04.715Z,1.30
2022-09-18T09:19:14.826Z,1.90
2022-09-18T09:25:05.627Z,0.90
2022-09-18T09:28:21.305Z,1.30
2022-09-18T09:31:21.415Z,0.70
2022-09-18T09:34:51.493Z,3.60
2022-09-18T09:37:45.901Z,1.50
2022-09-18T09:40:39.117Z,1.70
2022-09-18T09:43:26.486Z,2.10
2022-09-18T09:46:10.736Z,2.00
2022-09-18T09:49:14.026Z,1.10
2022-09-18T09:52:10.971Z,1.00
2022-09-18T09:54:45.328Z,1.60
2022-09-18T09:57:52.945Z,0.60
2022-09-18T10:00:26.293Z,1.20
2022-09-18T10:03:40.027Z,1.00
2022-09-18T10:06:19.081Z,3.50
2022-09-18T10:11:54.055Z,3.60
2022-09-18T10:14:37.653Z,3.00
2022-09-18T10:17:17.384Z,0.90
2022-09-18T10:19:53.993Z,1.60
2022-09-18T10:22:32.666Z,2.20
2022-09-18T10:25:20.611Z,1.70
2022-09-18T10:27:57.568Z,1.50
2022-09-18T10:30:31.629Z,3.10
2022-09-18T10:33:08.187Z,2.90
2022-09-18T10:35:48.386Z,2.70
2022-09-18T10:38:32.989Z,2.50
2022-09-18T10:41:33.568Z,0.40
2022-09-18T10:44:30.574Z,3.50
2022-09-18T10:47:13.624Z,0.40
2022-09-18T10:49:55.761Z,1.10
2022-09-18T10:52:39.387Z,0.70
2022-09-18T10:55:56.970Z,0.40
2022-09-18T10:58:50.953Z,2.50
2022-09-18T11:01:27.752Z,1.90
2022-09-18T11:04:08.947Z,1.10
2022-09-18T11:06:51.557Z,2.10
2022-09-18T11:09:37.093Z,3.30
2022-09-18T11:12:25.661Z,3.00
2022-09-18T11:15:12.126Z,2.80
2022-09-18T11:17:56.938Z,2.60
2022-09-18T11:20:32.286Z,3.10
2022-09-18T11:23:39.285Z,0.30
2022-09-18T11:26:32.516Z,2.50
2022-09-18T11:29:20.306Z,1.30
2022-09-18T11:32:20.633Z,2.50
2022-09-18T11:35:01.292Z,1.80
2022-09-18T11:37:39.602Z,2.10
2022-09-18T11:40:46.761Z,4.50
2022-09-18T11:43:39.838Z,2.70
2022-09-18T11:46:32.266Z,1.20
2022-09-18T11:49:24.667Z,2.10
2022-09-18T11:52:11.702Z,2.80
2022-09-18T11:55:30.890Z,2.40
2022-09-18T11:58:13.715Z,1.40
2022-09-18T12:01:04.911Z,5.40
2022-09-18T12:03:56.642Z,2.10
2022-09-18T12:06:51.279Z,0.30
2022-09-18T12:09:41.149Z,0.30
2022-09-18T12:12:22.962Z,2.00
2022-09-18T12:15:23.628Z,0.60
2022-09-18T12:18:13.459Z,0.70
2022-09-18T12:20:57.577Z,4.10
2022-09-18T12:23:32.933Z,0.20
2022-09-18T12:26:33.178Z,2.30
2022-09-18T12:29:21.688Z,0.30
2022-09-18T12:32:09.124Z,0.30
2022-09-18T12:35:23.162Z,0.60
2022-09-18T12:38:13.402Z,1.20
2022-09-18T12:41:01.578Z,2.50
2022-09-18T12:43:34.735Z,1.00
2022-09-18T12:46:24.973Z,0.70
2022-09-18T12:49:21.508Z,1.50
2022-09-18T12:52:25.812Z,0.30
2022-09-18T12:55:30.934Z,0.30
2022-09-18T12:58:17.103Z,1.10
2022-09-18T13:00:57.249Z,2.50
2022-09-18T13:03:39.374Z,2.30
2022-09-18T13:06:24.004Z,1.60
2022-09-18T13:09:25.155Z,0.50
2022-09-18T13:12:14.791Z,0.80
2022-09-18T13:15:05.040Z,0.90
2022-09-18T13:17:49.821Z,0.20
2022-09-18T13:20:39.431Z,0.60
2022-09-18T13:23:29.708Z,0.50
2022-09-18T13:26:06.201Z,0.30
2022-09-18T13:28:42.720Z,0.30
2022-09-18T13:31:30.962Z,1.20
2022-09-18T13:34:20.778Z,0.10
2022-09-18T13:36:54.862Z,0.60
2022-09-18T13:39:50.551Z,2.80
2022-09-18T13:42:54.396Z,0.10
2022-09-18T13:45:29.906Z,0.50
2022-09-18T13:48:20.631Z,1.30
2022-09-18T13:51:05.563Z,3.20
2022-09-18T13:53:45.213Z,0.40
2022-09-18T13:56:20.655Z,1.30
2022-09-18T13:58:56.705Z,0.50
2022-09-18T14:01:44.524Z,2.30
2022-09-18T14:04:41.271Z,0.60
2022-09-18T14:07:20.359Z,0.40
2022-09-18T14:10:03.991Z,0.40
2022-09-18T14:12:38.691Z,0.20
2022-09-18T14:15:28.147Z,0.20
2022-09-18T14:18:20.227Z,0.60
2022-09-18T14:21:01.101Z,2.40
2022-09-18T14:23:38.455Z,1.00
2022-09-18T14:26:48.304Z,1.00
2022-09-18T14:29:22.169Z,1.40
2022-09-18T14:32:00.185Z,0.20
2022-09-18T14:34:44.571Z,0.50
2022-09-18T14:37:24.022Z,0.90
2022-09-18T14:39:58.499Z,0.20
2022-09-18T14:42:36.131Z,1.60
2022-09-18T14:45:28.739Z,0.30
2022-09-18T14:50:39.874Z,1.40
2022-09-18T14:53:28.544Z,0.20
2022-09-18T14:56:11.866Z,0.40
2022-09-18T14:58:55.108Z,0.30
2022-09-18T15:01:33.075Z,0.70
2022-09-18T15:04:08.737Z,0.70
2022-09-18T15:06:45.637Z,0.40
2022-09-18T15:09:33.793Z,2.20
2022-09-18T15:12:11.885Z,1.00
2022-09-18T15:14:47.815Z,0.40
2022-09-18T15:17:29.031Z,0.30
2022-09-18T15:20:19.124Z,0.30
2022-09-18T15:22:53.986Z,1.50
2022-09-18T15:25:31.752Z,1.40
2022-09-18T15:28:08.560Z,1.10
2022-09-18T15:30:42.110Z,1.00
2022-09-18T15:33:26.301Z,0.80
2022-09-18T15:36:00.001Z,0.20
2022-09-18T15:38:52.369Z,0.90
2022-09-18T15:41:50.514Z,2.10
2022-09-18T15:45:04.896Z,0.40
2022-09-18T15:47:41.756Z,0.20
2022-09-18T15:50:17.867Z,1.00
2022-09-18T15:53:04.179Z,3.00
2022-09-18T15:55:54.207Z,1.80
2022-09-18T15:58:47.538Z,0.30
2022-09-18T16:01:30.021Z,1.60
2022-09-18T16:04:08.784Z,2.10
2022-09-18T16:06:51.858Z,0.40
2022-09-18T16:09:42.632Z,1.60
2022-09-18T16:12:40.285Z,0.70
2022-09-18T16:15:26.473Z,2.90
2022-09-18T16:18:29.852Z,0.60
2022-09-18T16:21:09.638Z,1.70
2022-09-18T16:24:01.923Z,0.50
2022-09-18T16:26:42.659Z,0.50
2022-09-18T16:29:25.481Z,0.50
2022-09-18T16:31:59.839Z,0.80
2022-09-18T16:34:34.252Z,1.20
2022-09-18T16:37:11.316Z,1.00
2022-09-18T16:39:46.781Z,0.90
2022-09-18T16:42:21.195Z,0.50
2022-09-18T16:44:54.495Z,0.50
2022-09-18T16:47:28.386Z,1.50
2022-09-18T16:50:01.716Z,0.90
2022-09-18T16:52:35.409Z,2.60
2022-09-18T16:55:08.908Z,0.40
2022-09-18T16:57:42.468Z,0.90
2022-09-18T17:00:15.747Z,0.30
2022-09-18T17:02:49.590Z,1.10
2022-09-18T17:05:22.720Z,0.60
2022-09-18T17:07:55.426Z,0.80
2022-09-18T17:10:28.148Z,0.70
2022-09-18T17:13:02.477Z,1.20
2022-09-18T17:15:36.269Z,0.80
2022-09-18T17:18:11.759Z,2.40
2022-09-18T17:20:48.747Z,1.00
2022-09-18T17:23:22.999Z,3.20
2022-09-18T17:26:10.161Z,0.30
2022-09-18T17:28:44.109Z,2.90
2022-09-18T17:31:20.712Z,0.90
2022-09-18T17:33:55.016Z,2.10
2022-09-18T17:36:28.928Z,1.00
2022-09-18T17:39:03.190Z,3.50
2022-09-18T17:41:36.588Z,1.90
2022-09-18T17:44:10.058Z,3.70
2022-09-18T17:46:42.815Z,2.20
2022-09-18T17:49:15.611Z,3.20
2022-09-18T17:51:49.149Z,3.20
2022-09-18T17:54:22.118Z,1.70
2022-09-18T17:56:57.687Z,3.80
2022-09-18T17:59:31.385Z,3.40
2022-09-18T18:02:06.737Z,1.70
2022-09-18T18:04:40.393Z,3.00
2022-09-18T18:07:14.529Z,5.70
2022-09-18T18:09:48.501Z,1.30
2022-09-18T18:12:21.336Z,1.40
2022-09-18T18:14:53.883Z,1.30
2022-09-18T18:17:26.410Z,1.40
2022-09-18T18:19:59.709Z,2.40
2022-09-18T18:22:34.679Z,3.10
2022-09-18T18:25:09.261Z,4.90
2022-09-18T18:27:43.211Z,2.10
2022-09-18T18:30:16.949Z,1.90
2022-09-18T18:32:50.199Z,2.30
2022-09-18T18:35:23.444Z,2.60
2022-09-18T18:37:56.561Z,3.00
2022-09-18T18:40:29.773Z,4.10
2022-09-18T18:43:03.962Z,1.30
2022-09-18T18:45:37.872Z,1.00
2022-09-18T18:48:11.435Z,2.80
2022-09-18T18:50:48.121Z,1.80
2022-09-18T18:53:22.370Z,1.30
2022-09-18T18:55:55.650Z,2.40
2022-09-18T18:58:28.805Z,3.30
2022-09-18T19:01:14.902Z,1.60
2022-09-18T19:04:00.268Z,0.90
2022-09-18T19:06:33.236Z,2.90
2022-09-18T19:09:12.183Z,2.30
2022-09-18T19:11:48.840Z,2.60
2022-09-18T19:14:32.253Z,3.70
2022-09-18T19:17:05.662Z,2.30
2022-09-18T19:19:39.123Z,2.00
2022-09-18T19:22:16.565Z,5.60
2022-09-18T19:24:51.354Z,3.30
2022-09-18T19:27:25.624Z,2.90
2022-09-18T19:29:58.853Z,2.60
2022-09-18T19:32:32.656Z,9.80
2022-09-18T19:35:05.857Z,3.90
2022-09-18T19:37:39.361Z,2.70
2022-09-18T19:40:14.503Z,4.40
2022-09-18T19:42:57.462Z,5.20
2022-09-18T19:45:35.566Z,6.90
2022-09-18T19:48:13.731Z,5.70
2022-09-18T19:50:48.418Z,6.70
2022-09-18T19:53:21.814Z,4.00
2022-09-18T19:55:57.248Z,5.60
2022-09-18T19:58:33.696Z,5.70
2022-09-18T20:01:14.001Z,4.60
2022-09-18T20:03:47.214Z,2.60
2022-09-18T20:06:20.433Z,4.50
2022-09-18T20:08:53.832Z,3.10
2022-09-18T20:11:26.687Z,8.00
2022-09-18T20:13:59.978Z,7.30
2022-09-18T20:16:32.940Z,3.20
2022-09-18T20:19:06.872Z,6.60
2022-09-18T20:21:39.654Z,2.20
2022-09-18T20:24:12.843Z,3.20
2022-09-18T20:26:45.960Z,3.50
2022-09-18T20:29:19.214Z,2.30
2022-09-18T20:31:51.833Z,3.20
2022-09-18T20:34:25.560Z,3.60
2022-09-18T20:36:59.430Z,3.80
2022-09-18T20:39:32.536Z,4.10
2022-09-18T20:42:05.500Z,3.60
2022-09-18T20:44:38.144Z,4.80
2022-09-18T20:47:11.378Z,3.80
2022-09-18T20:49:46.446Z,4.10
2022-09-18T20:52:19.332Z,3.60
2022-09-18T20:54:52.358Z,3.30
2022-09-18T20:57:25.355Z,5.50
2022-09-18T20:59:58.479Z,8.20
2022-09-18T21:02:36.090Z,3.60
2022-09-18T21:05:14.194Z,4.30
2022-09-18T21:07:48.836Z,2.10
2022-09-18T21:10:21.982Z,2.60
2022-09-18T21:12:54.344Z,3.30
2022-09-18T21:15:26.987Z,7.70
2022-09-18T21:18:00.808Z,4.40
2022-09-18T21:20:34.171Z,3.90
2022-09-18T21:23:25.788Z,4.60
2022-09-18T21:25:59.522Z,4.00
2022-09-18T21:28:32.582Z,5.40
2022-09-18T21:31:13.220Z,2.80
2022-09-18T21:33:46.366Z,2.70
2022-09-18T21:36:19.263Z,4.90
2022-09-18T21:38:53.424Z,2.10
2022-09-18T21:41:26.728Z,3.00
2022-09-18T21:44:00.993Z,4.60
2022-09-18T21:46:39.789Z,6.80
2022-09-18T21:49:17.407Z,3.60
2022-09-18T21:51:51.612Z,4.90
2022-09-18T21:54:28.366Z,2.20
2022-09-18T21:57:03.218Z,2.10
2022-09-18T21:59:37.133Z,1.20
2022-09-18T22:02:12.053Z,1.80
2022-09-18T22:04:46.015Z,4.70
2022-09-18T22:07:18.705Z,2.70
2022-09-18T22:09:52.618Z,2.40
2022-09-18T22:12:25.244Z,1.50
2022-09-18T22:14:58.260Z,3.10
2022-09-18T22:17:31.531Z,1.40
2022-09-18T22:20:04.290Z,1.80
2022-09-18T22:22:37.098Z,2.30
2022-09-18T22:25:09.788Z,3.40
2022-09-18T22:27:45.752Z,2.40
2022-09-18T22:30:20.543Z,2.00
2022-09-18T22:32:53.336Z,3.90
2022-09-18T22:35:26.324Z,1.30
2022-09-18T22:37:59.214Z,3.50
2022-09-18T22:40:32.312Z,6.60
2022-09-18T22:43:05.166Z,2.00
2022-09-18T22:45:38.000Z,2.00
2022-09-18T22:48:11.018Z,2.40
2022-09-18T22:50:44.546Z,2.50
2022-09-18T22:53:17.601Z,4.00
2022-09-18T22:55:50.270Z,1.70
2022-09-18T22:58:23.244Z,2.80
2022-09-18T23:00:56.255Z,3.80
2022-09-18T23:03:28.882Z,3.50
2022-09-18T23:06:03.385Z,3.20
2022-09-18T23:08:37.736Z,2.10
2022-09-18T23:11:12.678Z,4.90
2022-09-18T23:13:53.372Z,2.40
2022-09-18T23:16:27.998Z,2.80
2022-09-18T23:19:04.153Z,2.30
2022-09-18T23:21:38.021Z,3.30
2022-09-18T23:24:11.853Z,2.20
2022-09-18T23:26:46.355Z,4.10
2022-09-18T23:29:23.769Z,2.70
2022-09-18T23:32:00.922Z,3.10
2022-09-18T23:34:34.776Z,2.20
2022-09-18T23:37:07.602Z,4.70
2022-09-18T23:39:40.608Z,4.00
2022-09-18T23:42:13.301Z,3.00
2022-09-18T23:44:46.489Z,1.80
2022-09-18T23:47:19.067Z,1.70
2022-09-18T23:49:54.057Z,1.60
2022-09-18T23:52:26.839Z,1.50
2022-09-18T23:54:59.634Z,3.90
2022-09-18T23:57:32.386Z,2.70
